sensor_id;sensor_type;location;lat;lon;timestamp;P1;durP1;ratioP1;P2;durP2;ratioP2
49458;SDS011;35354;51.296;16.924;2023-01-10T00:00:31;105.50;;;60.60;;
49458;SDS011;35354;51.296;16.924;2023-01-10T00:03:02;113.72;;;65.35;;
49458;SDS011;35354;51.296;16.924;2023-01-10T00:05:30;100.22;;;58.45;;
49458;SDS011;35354;51.296;16.924;2023-01-10T00:07:55;95.82;;;56.05;;
49458;SDS011;35354;51.296;16.924;2023-01-10T00:10:23;91.10;;;53.67;;
49458;SDS011;35354;51.296;16.924;2023-01-10T00:12:49;92.40;;;52.38;;
49458;SDS011;35354;51.296;16.924;2023-01-10T00:15:33;90.32;;;53.75;;
49458;SDS011;35354;51.296;16.924;2023-01-10T00:18:00;98.32;;;56.83;;
49458;SDS011;35354;51.296;16.924;2023-01-10T00:20:25;96.13;;;55.53;;
49458;SDS011;35354;51.296;16.924;2023-01-10T00:22:50;79.90;;;51.95;;
49458;SDS011;35354;51.296;16.924;2023-01-10T00:25:16;84.47;;;52.33;;
49458;SDS011;35354;51.296;16.924;2023-01-10T00:27:44;80.97;;;51.03;;
49458;SDS011;35354;51.296;16.924;2023-01-10T00:30:13;78.32;;;50.15;;
49458;SDS011;35354;51.296;16.924;2023-01-10T00:32:41;79.43;;;50.90;;
49458;SDS011;35354;51.296;16.924;2023-01-10T00:35:08;76.20;;;50.78;;
49458;SDS011;35354;51.296;16.924;2023-01-10T00:37:35;82.15;;;51.78;;
49458;SDS011;35354;51.296;16.924;2023-01-10T00:40:01;81.25;;;50.45;;
49458;SDS011;35354;51.296;16.924;2023-01-10T00:42:27;79.22;;;49.75;;
49458;SDS011;35354;51.296;16.924;2023-01-10T00:45:11;74.93;;;49.13;;
49458;SDS011;35354;51.296;16.924;2023-01-10T00:47:36;75.82;;;47.00;;
49458;SDS011;35354;51.296;16.924;2023-01-10T00:50:02;72.13;;;46.83;;
49458;SDS011;35354;51.296;16.924;2023-01-10T00:52:32;75.50;;;49.13;;
49458;SDS011;35354;51.296;16.924;2023-01-10T00:54:58;72.72;;;48.40;;
49458;SDS011;35354;51.296;16.924;2023-01-10T00:57:23;71.05;;;45.75;;
49458;SDS011;35354;51.296;16.924;2023-01-10T00:59:48;75.10;;;48.08;;
49458;SDS011;35354;51.296;16.924;2023-01-10T01:02:14;69.78;;;45.60;;
49458;SDS011;35354;51.296;16.924;2023-01-10T01:04:39;71.75;;;45.30;;
49458;SDS011;35354;51.296;16.924;2023-01-10T01:07:05;70.10;;;46.00;;
49458;SDS011;35354;51.296;16.924;2023-01-10T01:09:30;75.18;;;44.35;;
49458;SDS011;35354;51.296;16.924;2023-01-10T01:11:55;67.13;;;43.47;;
49458;SDS011;35354;51.296;16.924;2023-01-10T01:14:21;77.07;;;45.28;;
49458;SDS011;35354;51.296;16.924;2023-01-10T01:16:47;78.07;;;46.20;;
49458;SDS011;35354;51.296;16.924;2023-01-10T01:19:13;67.32;;;42.47;;
49458;SDS011;35354;51.296;16.924;2023-01-10T01:21:38;64.65;;;41.47;;
49458;SDS011;35354;51.296;16.924;2023-01-10T01:24:03;65.88;;;41.33;;
49458;SDS011;35354;51.296;16.924;2023-01-10T01:26:29;68.82;;;42.30;;
49458;SDS011;35354;51.296;16.924;2023-01-10T01:28:54;73.60;;;44.13;;
49458;SDS011;35354;51.296;16.924;2023-01-10T01:31:20;61.78;;;39.53;;
49458;SDS011;35354;51.296;16.924;2023-01-10T01:33:45;63.40;;;39.15;;
49458;SDS011;35354;51.296;16.924;2023-01-10T01:36:11;68.90;;;41.28;;
49458;SDS011;35354;51.296;16.924;2023-01-10T01:38:38;62.72;;;40.65;;
49458;SDS011;35354;51.296;16.924;2023-01-10T01:41:04;72.50;;;40.22;;
49458;SDS011;35354;51.296;16.924;2023-01-10T01:46:28;61.70;;;34.95;;
49458;SDS011;35354;51.296;16.924;2023-01-10T01:48:54;48.70;;;29.73;;
49458;SDS011;35354;51.296;16.924;2023-01-10T01:51:21;43.30;;;27.20;;
49458;SDS011;35354;51.296;16.924;2023-01-10T01:53:52;39.47;;;25.67;;
49458;SDS011;35354;51.296;16.924;2023-01-10T01:56:24;34.45;;;21.35;;
49458;SDS011;35354;51.296;16.924;2023-01-10T01:59:00;34.58;;;21.58;;
49458;SDS011;35354;51.296;16.924;2023-01-10T02:01:30;29.42;;;18.23;;
49458;SDS011;35354;51.296;16.924;2023-01-10T02:04:00;24.33;;;16.02;;
49458;SDS011;35354;51.296;16.924;2023-01-10T02:06:35;19.10;;;13.48;;
49458;SDS011;35354;51.296;16.924;2023-01-10T02:09:13;22.90;;;14.20;;
49458;SDS011;35354;51.296;16.924;2023-01-10T02:11:42;20.05;;;12.27;;
49458;SDS011;35354;51.296;16.924;2023-01-10T02:14:08;19.80;;;12.30;;
49458;SDS011;35354;51.296;16.924;2023-01-10T02:16:36;19.05;;;12.50;;
49458;SDS011;35354;51.296;16.924;2023-01-10T02:19:01;17.58;;;11.27;;
49458;SDS011;35354;51.296;16.924;2023-01-10T02:24:25;19.10;;;11.68;;
49458;SDS011;35354;51.296;16.924;2023-01-10T02:32:30;15.45;;;9.80;;
49458;SDS011;35354;51.296;16.924;2023-01-10T02:40:20;14.75;;;11.38;;
49458;SDS011;35354;51.296;16.924;2023-01-10T02:43:02;15.57;;;10.65;;
49458;SDS011;35354;51.296;16.924;2023-01-10T02:45:35;17.13;;;11.27;;
49458;SDS011;35354;51.296;16.924;2023-01-10T02:48:05;15.57;;;10.43;;
49458;SDS011;35354;51.296;16.924;2023-01-10T02:53:06;15.50;;;11.27;;
49458;SDS011;35354;51.296;16.924;2023-01-10T02:58:16;17.17;;;10.35;;
49458;SDS011;35354;51.296;16.924;2023-01-10T03:07:27;14.38;;;9.65;;
49458;SDS011;35354;51.296;16.924;2023-01-10T03:15:03;13.93;;;9.40;;
49458;SDS011;35354;51.296;16.924;2023-01-10T03:17:30;17.23;;;9.57;;
49458;SDS011;35354;51.296;16.924;2023-01-10T03:19:57;13.98;;;9.18;;
49458;SDS011;35354;51.296;16.924;2023-01-10T03:22:26;11.65;;;8.43;;
49458;SDS011;35354;51.296;16.924;2023-01-10T03:24:55;16.23;;;10.02;;
49458;SDS011;35354;51.296;16.924;2023-01-10T03:27:28;14.93;;;9.70;;
49458;SDS011;35354;51.296;16.924;2023-01-10T03:30:29;13.57;;;9.43;;
49458;SDS011;35354;51.296;16.924;2023-01-10T03:33:07;15.47;;;9.57;;
49458;SDS011;35354;51.296;16.924;2023-01-10T03:38:15;17.00;;;11.15;;
49458;SDS011;35354;51.296;16.924;2023-01-10T03:43:46;12.23;;;8.23;;
49458;SDS011;35354;51.296;16.924;2023-01-10T03:49:21;11.82;;;7.97;;
49458;SDS011;35354;51.296;16.924;2023-01-10T03:51:50;15.68;;;8.27;;
49458;SDS011;35354;51.296;16.924;2023-01-10T03:54:16;11.10;;;7.70;;
49458;SDS011;35354;51.296;16.924;2023-01-10T03:56:45;15.20;;;8.18;;
49458;SDS011;35354;51.296;16.924;2023-01-10T03:59:13;12.82;;;8.18;;
49458;SDS011;35354;51.296;16.924;2023-01-10T04:01:40;13.02;;;8.63;;
49458;SDS011;35354;51.296;16.924;2023-01-10T04:04:05;11.35;;;7.65;;
49458;SDS011;35354;51.296;16.924;2023-01-10T04:06:30;12.52;;;8.00;;
49458;SDS011;35354;51.296;16.924;2023-01-10T04:08:56;12.55;;;8.07;;
49458;SDS011;35354;51.296;16.924;2023-01-10T04:11:21;13.75;;;8.73;;
49458;SDS011;35354;51.296;16.924;2023-01-10T04:13:46;11.73;;;8.15;;
49458;SDS011;35354;51.296;16.924;2023-01-10T04:16:12;10.95;;;7.45;;
49458;SDS011;35354;51.296;16.924;2023-01-10T04:18:38;12.65;;;7.97;;
49458;SDS011;35354;51.296;16.924;2023-01-10T04:21:03;9.57;;;6.95;;
49458;SDS011;35354;51.296;16.924;2023-01-10T04:23:28;10.40;;;7.18;;
49458;SDS011;35354;51.296;16.924;2023-01-10T04:25:54;11.68;;;7.43;;
49458;SDS011;35354;51.296;16.924;2023-01-10T04:28:19;11.35;;;7.07;;
49458;SDS011;35354;51.296;16.924;2023-01-10T04:30:44;13.80;;;7.97;;
49458;SDS011;35354;51.296;16.924;2023-01-10T04:33:10;12.60;;;7.88;;
49458;SDS011;35354;51.296;16.924;2023-01-10T04:35:36;11.48;;;7.20;;
49458;SDS011;35354;51.296;16.924;2023-01-10T04:38:02;11.27;;;7.95;;
49458;SDS011;35354;51.296;16.924;2023-01-10T04:40:27;12.80;;;7.90;;
49458;SDS011;35354;51.296;16.924;2023-01-10T04:42:53;7.90;;;6.35;;
49458;SDS011;35354;51.296;16.924;2023-01-10T04:45:18;9.25;;;6.18;;
49458;SDS011;35354;51.296;16.924;2023-01-10T04:47:49;10.57;;;6.70;;
49458;SDS011;35354;51.296;16.924;2023-01-10T04:50:15;8.13;;;6.53;;
49458;SDS011;35354;51.296;16.924;2023-01-10T04:52:41;12.05;;;7.15;;
49458;SDS011;35354;51.296;16.924;2023-01-10T04:55:07;12.68;;;8.40;;
49458;SDS011;35354;51.296;16.924;2023-01-10T04:57:33;15.20;;;9.05;;
49458;SDS011;35354;51.296;16.924;2023-01-10T04:59:59;15.60;;;7.72;;
49458;SDS011;35354;51.296;16.924;2023-01-10T05:02:24;9.73;;;7.35;;
49458;SDS011;35354;51.296;16.924;2023-01-10T05:04:50;9.93;;;6.95;;
49458;SDS011;35354;51.296;16.924;2023-01-10T05:07:15;12.27;;;6.90;;
49458;SDS011;35354;51.296;16.924;2023-01-10T05:09:40;11.95;;;8.02;;
49458;SDS011;35354;51.296;16.924;2023-01-10T05:12:06;10.10;;;7.32;;
49458;SDS011;35354;51.296;16.924;2023-01-10T05:14:32;8.68;;;5.72;;
49458;SDS011;35354;51.296;16.924;2023-01-10T05:16:58;8.48;;;6.40;;
49458;SDS011;35354;51.296;16.924;2023-01-10T05:19:23;7.63;;;5.63;;
49458;SDS011;35354;51.296;16.924;2023-01-10T05:21:48;18.15;;;9.38;;
49458;SDS011;35354;51.296;16.924;2023-01-10T05:24:16;17.08;;;9.52;;
49458;SDS011;35354;51.296;16.924;2023-01-10T05:26:41;9.68;;;6.45;;
49458;SDS011;35354;51.296;16.924;2023-01-10T05:29:09;10.70;;;6.20;;
49458;SDS011;35354;51.296;16.924;2023-01-10T05:31:35;14.02;;;7.60;;
49458;SDS011;35354;51.296;16.924;2023-01-10T05:34:00;8.27;;;6.40;;
49458;SDS011;35354;51.296;16.924;2023-01-10T05:36:25;9.05;;;5.93;;
49458;SDS011;35354;51.296;16.924;2023-01-10T05:38:51;12.23;;;7.55;;
49458;SDS011;35354;51.296;16.924;2023-01-10T05:41:16;9.32;;;6.80;;
49458;SDS011;35354;51.296;16.924;2023-01-10T05:43:41;9.55;;;7.03;;
49458;SDS011;35354;51.296;16.924;2023-01-10T05:46:07;13.57;;;9.02;;
49458;SDS011;35354;51.296;16.924;2023-01-10T05:48:32;12.80;;;8.60;;
49458;SDS011;35354;51.296;16.924;2023-01-10T05:50:58;13.63;;;8.65;;
49458;SDS011;35354;51.296;16.924;2023-01-10T05:53:23;12.63;;;8.57;;
49458;SDS011;35354;51.296;16.924;2023-01-10T05:56:07;12.50;;;8.50;;
49458;SDS011;35354;51.296;16.924;2023-01-10T05:58:33;15.00;;;9.00;;
49458;SDS011;35354;51.296;16.924;2023-01-10T06:00:58;12.90;;;8.80;;
49458;SDS011;35354;51.296;16.924;2023-01-10T06:03:24;14.95;;;8.40;;
49458;SDS011;35354;51.296;16.924;2023-01-10T06:05:50;15.35;;;8.35;;
49458;SDS011;35354;51.296;16.924;2023-01-10T06:08:16;11.23;;;7.30;;
49458;SDS011;35354;51.296;16.924;2023-01-10T06:10:42;11.18;;;7.38;;
49458;SDS011;35354;51.296;16.924;2023-01-10T06:13:08;14.95;;;8.13;;
49458;SDS011;35354;51.296;16.924;2023-01-10T06:15:34;11.45;;;7.05;;
49458;SDS011;35354;51.296;16.924;2023-01-10T06:18:00;19.75;;;7.90;;
49458;SDS011;35354;51.296;16.924;2023-01-10T06:20:25;16.23;;;8.40;;
49458;SDS011;35354;51.296;16.924;2023-01-10T06:22:51;10.73;;;6.97;;
49458;SDS011;35354;51.296;16.924;2023-01-10T06:25:16;7.65;;;5.95;;
49458;SDS011;35354;51.296;16.924;2023-01-10T06:27:42;11.15;;;7.40;;
49458;SDS011;35354;51.296;16.924;2023-01-10T06:30:08;11.93;;;7.07;;
49458;SDS011;35354;51.296;16.924;2023-01-10T06:32:35;12.32;;;6.70;;
49458;SDS011;35354;51.296;16.924;2023-01-10T06:35:01;8.15;;;5.97;;
49458;SDS011;35354;51.296;16.924;2023-01-10T06:37:26;8.25;;;5.95;;
49458;SDS011;35354;51.296;16.924;2023-01-10T06:39:52;8.90;;;6.07;;
49458;SDS011;35354;51.296;16.924;2023-01-10T06:42:17;10.85;;;6.68;;
49458;SDS011;35354;51.296;16.924;2023-01-10T06:44:42;11.40;;;6.30;;
49458;SDS011;35354;51.296;16.924;2023-01-10T06:47:08;8.65;;;6.05;;
49458;SDS011;35354;51.296;16.924;2023-01-10T06:49:33;7.55;;;6.05;;
49458;SDS011;35354;51.296;16.924;2023-01-10T06:51:58;8.63;;;6.82;;
49458;SDS011;35354;51.296;16.924;2023-01-10T06:54:24;7.78;;;5.90;;
49458;SDS011;35354;51.296;16.924;2023-01-10T06:56:49;8.80;;;6.45;;
49458;SDS011;35354;51.296;16.924;2023-01-10T06:59:14;9.05;;;6.15;;
49458;SDS011;35354;51.296;16.924;2023-01-10T07:01:40;9.05;;;6.43;;
49458;SDS011;35354;51.296;16.924;2023-01-10T07:04:05;6.78;;;5.75;;
49458;SDS011;35354;51.296;16.924;2023-01-10T07:06:30;8.93;;;5.97;;
49458;SDS011;35354;51.296;16.924;2023-01-10T07:08:56;8.57;;;6.55;;
49458;SDS011;35354;51.296;16.924;2023-01-10T07:11:22;9.88;;;6.78;;
49458;SDS011;35354;51.296;16.924;2023-01-10T07:13:47;8.60;;;6.63;;
49458;SDS011;35354;51.296;16.924;2023-01-10T07:16:13;11.05;;;6.50;;
49458;SDS011;35354;51.296;16.924;2023-01-10T07:18:41;11.02;;;6.50;;
49458;SDS011;35354;51.296;16.924;2023-01-10T07:21:07;9.68;;;6.53;;
49458;SDS011;35354;51.296;16.924;2023-01-10T07:23:33;12.13;;;7.43;;
49458;SDS011;35354;51.296;16.924;2023-01-10T07:26:17;10.07;;;6.57;;
49458;SDS011;35354;51.296;16.924;2023-01-10T07:28:44;10.48;;;6.60;;
49458;SDS011;35354;51.296;16.924;2023-01-10T07:31:14;9.57;;;6.57;;
49458;SDS011;35354;51.296;16.924;2023-01-10T07:33:40;10.23;;;7.13;;
49458;SDS011;35354;51.296;16.924;2023-01-10T07:36:05;8.57;;;6.70;;
49458;SDS011;35354;51.296;16.924;2023-01-10T07:38:31;11.38;;;7.53;;
49458;SDS011;35354;51.296;16.924;2023-01-10T07:40:56;11.30;;;8.13;;
49458;SDS011;35354;51.296;16.924;2023-01-10T07:43:22;15.02;;;8.75;;
49458;SDS011;35354;51.296;16.924;2023-01-10T07:45:47;15.05;;;9.05;;
49458;SDS011;35354;51.296;16.924;2023-01-10T07:48:12;16.77;;;9.00;;
49458;SDS011;35354;51.296;16.924;2023-01-10T07:50:38;12.15;;;8.27;;
49458;SDS011;35354;51.296;16.924;2023-01-10T07:53:04;12.38;;;8.00;;
49458;SDS011;35354;51.296;16.924;2023-01-10T07:55:31;14.23;;;8.43;;
49458;SDS011;35354;51.296;16.924;2023-01-10T07:57:58;14.73;;;8.18;;
49458;SDS011;35354;51.296;16.924;2023-01-10T08:00:24;11.05;;;7.38;;
49458;SDS011;35354;51.296;16.924;2023-01-10T08:02:52;12.43;;;8.05;;
49458;SDS011;35354;51.296;16.924;2023-01-10T08:05:18;8.90;;;7.65;;
49458;SDS011;35354;51.296;16.924;2023-01-10T08:07:44;11.18;;;8.02;;
49458;SDS011;35354;51.296;16.924;2023-01-10T08:10:09;12.40;;;8.15;;
49458;SDS011;35354;51.296;16.924;2023-01-10T08:12:35;12.13;;;8.20;;
49458;SDS011;35354;51.296;16.924;2023-01-10T08:15:00;11.70;;;8.18;;
49458;SDS011;35354;51.296;16.924;2023-01-10T08:17:26;12.82;;;8.02;;
49458;SDS011;35354;51.296;16.924;2023-01-10T08:19:51;11.85;;;8.30;;
49458;SDS011;35354;51.296;16.924;2023-01-10T08:22:17;12.70;;;7.65;;
49458;SDS011;35354;51.296;16.924;2023-01-10T08:24:42;12.50;;;8.00;;
49458;SDS011;35354;51.296;16.924;2023-01-10T08:27:07;14.60;;;8.48;;
49458;SDS011;35354;51.296;16.924;2023-01-10T08:29:33;9.63;;;7.80;;
49458;SDS011;35354;51.296;16.924;2023-01-10T08:31:58;10.65;;;7.93;;
49458;SDS011;35354;51.296;16.924;2023-01-10T08:34:24;14.32;;;9.98;;
49458;SDS011;35354;51.296;16.924;2023-01-10T08:36:51;12.00;;;8.75;;
49458;SDS011;35354;51.296;16.924;2023-01-10T08:39:18;13.63;;;10.65;;
49458;SDS011;35354;51.296;16.924;2023-01-10T08:41:45;11.10;;;8.00;;
49458;SDS011;35354;51.296;16.924;2023-01-10T08:44:11;10.98;;;7.60;;
49458;SDS011;35354;51.296;16.924;2023-01-10T08:46:37;9.55;;;7.13;;
49458;SDS011;35354;51.296;16.924;2023-01-10T08:49:02;10.23;;;8.13;;
49458;SDS011;35354;51.296;16.924;2023-01-10T08:51:28;13.38;;;7.55;;
49458;SDS011;35354;51.296;16.924;2023-01-10T08:53:53;10.13;;;7.25;;
49458;SDS011;35354;51.296;16.924;2023-01-10T08:56:18;11.60;;;7.07;;
49458;SDS011;35354;51.296;16.924;2023-01-10T08:58:44;9.25;;;6.97;;
49458;SDS011;35354;51.296;16.924;2023-01-10T09:01:09;8.98;;;6.95;;
49458;SDS011;35354;51.296;16.924;2023-01-10T09:03:35;9.68;;;7.55;;
49458;SDS011;35354;51.296;16.924;2023-01-10T09:06:01;9.93;;;7.35;;
49458;SDS011;35354;51.296;16.924;2023-01-10T09:08:26;13.00;;;7.82;;
49458;SDS011;35354;51.296;16.924;2023-01-10T09:10:52;8.25;;;7.38;;
49458;SDS011;35354;51.296;16.924;2023-01-10T09:13:18;9.73;;;7.20;;
49458;SDS011;35354;51.296;16.924;2023-01-10T09:15:44;11.60;;;7.97;;
49458;SDS011;35354;51.296;16.924;2023-01-10T09:18:10;7.97;;;6.95;;
49458;SDS011;35354;51.296;16.924;2023-01-10T09:20:37;12.75;;;7.38;;
49458;SDS011;35354;51.296;16.924;2023-01-10T09:23:07;11.40;;;7.57;;
49458;SDS011;35354;51.296;16.924;2023-01-10T09:25:34;11.40;;;7.13;;
49458;SDS011;35354;51.296;16.924;2023-01-10T09:28:01;10.75;;;7.45;;
49458;SDS011;35354;51.296;16.924;2023-01-10T09:30:28;11.73;;;8.80;;
49458;SDS011;35354;51.296;16.924;2023-01-10T09:32:55;11.20;;;7.15;;
49458;SDS011;35354;51.296;16.924;2023-01-10T09:35:22;12.70;;;8.55;;
49458;SDS011;35354;51.296;16.924;2023-01-10T09:37:49;14.43;;;9.32;;
49458;SDS011;35354;51.296;16.924;2023-01-10T09:40:18;14.75;;;10.30;;
49458;SDS011;35354;51.296;16.924;2023-01-10T09:45:44;14.13;;;8.82;;
49458;SDS011;35354;51.296;16.924;2023-01-10T09:48:23;14.40;;;8.88;;
49458;SDS011;35354;51.296;16.924;2023-01-10T09:51:13;16.60;;;9.05;;
49458;SDS011;35354;51.296;16.924;2023-01-10T09:53:49;14.80;;;9.27;;
49458;SDS011;35354;51.296;16.924;2023-01-10T09:56:18;14.77;;;9.00;;
49458;SDS011;35354;51.296;16.924;2023-01-10T09:58:43;15.40;;;7.80;;
49458;SDS011;35354;51.296;16.924;2023-01-10T10:01:14;9.85;;;7.40;;
49458;SDS011;35354;51.296;16.924;2023-01-10T10:06:34;12.80;;;8.73;;
49458;SDS011;35354;51.296;16.924;2023-01-10T10:08:59;9.80;;;7.40;;
49458;SDS011;35354;51.296;16.924;2023-01-10T10:22:09;16.33;;;9.25;;
49458;SDS011;35354;51.296;16.924;2023-01-10T10:27:23;12.30;;;8.05;;
49458;SDS011;35354;51.296;16.924;2023-01-10T10:30:07;10.45;;;7.57;;
49458;SDS011;35354;51.296;16.924;2023-01-10T10:40:50;11.70;;;7.50;;
49458;SDS011;35354;51.296;16.924;2023-01-10T10:43:22;12.07;;;8.25;;
49458;SDS011;35354;51.296;16.924;2023-01-10T10:45:59;14.75;;;9.65;;
49458;SDS011;35354;51.296;16.924;2023-01-10T10:48:31;16.70;;;9.38;;
49458;SDS011;35354;51.296;16.924;2023-01-10T10:53:28;12.87;;;9.60;;
49458;SDS011;35354;51.296;16.924;2023-01-10T10:55:56;12.80;;;8.38;;
49458;SDS011;35354;51.296;16.924;2023-01-10T10:58:22;12.85;;;8.07;;
49458;SDS011;35354;51.296;16.924;2023-01-10T11:00:49;20.20;;;10.20;;
49458;SDS011;35354;51.296;16.924;2023-01-10T11:05:53;13.90;;;10.00;;
49458;SDS011;35354;51.296;16.924;2023-01-10T11:08:20;18.13;;;9.88;;
49458;SDS011;35354;51.296;16.924;2023-01-10T11:10:56;16.45;;;9.63;;
49458;SDS011;35354;51.296;16.924;2023-01-10T11:15:57;12.32;;;8.23;;
49458;SDS011;35354;51.296;16.924;2023-01-10T11:18:25;16.08;;;10.57;;
49458;SDS011;35354;51.296;16.924;2023-01-10T11:20:53;16.63;;;10.77;;
49458;SDS011;35354;51.296;16.924;2023-01-10T11:23:41;20.45;;;12.52;;
49458;SDS011;35354;51.296;16.924;2023-01-10T11:26:27;23.85;;;13.18;;
49458;SDS011;35354;51.296;16.924;2023-01-10T11:31:44;15.30;;;9.20;;
49458;SDS011;35354;51.296;16.924;2023-01-10T11:34:21;15.40;;;9.38;;
49458;SDS011;35354;51.296;16.924;2023-01-10T11:37:01;13.00;;;8.73;;
49458;SDS011;35354;51.296;16.924;2023-01-10T11:39:28;13.77;;;8.65;;
49458;SDS011;35354;51.296;16.924;2023-01-10T11:41:54;19.25;;;10.93;;
49458;SDS011;35354;51.296;16.924;2023-01-10T11:44:26;13.27;;;9.02;;
49458;SDS011;35354;51.296;16.924;2023-01-10T11:46:54;18.95;;;9.80;;
49458;SDS011;35354;51.296;16.924;2023-01-10T11:49:24;15.75;;;9.45;;
49458;SDS011;35354;51.296;16.924;2023-01-10T11:52:03;12.70;;;8.50;;
49458;SDS011;35354;51.296;16.924;2023-01-10T11:54:44;13.98;;;8.65;;
49458;SDS011;35354;51.296;16.924;2023-01-10T12:00:05;17.15;;;10.63;;
49458;SDS011;35354;51.296;16.924;2023-01-10T12:02:36;16.38;;;9.40;;
49458;SDS011;35354;51.296;16.924;2023-01-10T12:05:06;18.67;;;11.48;;
49458;SDS011;35354;51.296;16.924;2023-01-10T12:10:31;16.65;;;8.82;;
49458;SDS011;35354;51.296;16.924;2023-01-10T12:12:58;15.52;;;9.68;;
49458;SDS011;35354;51.296;16.924;2023-01-10T12:15:31;20.55;;;10.38;;
49458;SDS011;35354;51.296;16.924;2023-01-10T12:17:59;14.65;;;9.77;;
49458;SDS011;35354;51.296;16.924;2023-01-10T12:20:28;17.27;;;10.00;;
49458;SDS011;35354;51.296;16.924;2023-01-10T12:23:01;17.35;;;10.98;;
49458;SDS011;35354;51.296;16.924;2023-01-10T12:25:34;18.60;;;10.48;;
49458;SDS011;35354;51.296;16.924;2023-01-10T12:28:20;13.88;;;10.30;;
49458;SDS011;35354;51.296;16.924;2023-01-10T12:33:20;27.35;;;13.70;;
49458;SDS011;35354;51.296;16.924;2023-01-10T12:35:56;22.65;;;12.27;;
49458;SDS011;35354;51.296;16.924;2023-01-10T12:38:53;22.65;;;11.32;;
49458;SDS011;35354;51.296;16.924;2023-01-10T12:44:59;21.23;;;10.18;;
49458;SDS011;35354;51.296;16.924;2023-01-10T12:52:45;22.15;;;11.80;;
49458;SDS011;35354;51.296;16.924;2023-01-10T12:55:17;20.95;;;10.98;;
49458;SDS011;35354;51.296;16.924;2023-01-10T12:57:48;19.90;;;10.50;;
49458;SDS011;35354;51.296;16.924;2023-01-10T13:00:20;25.05;;;11.77;;
49458;SDS011;35354;51.296;16.924;2023-01-10T13:02:48;29.27;;;14.48;;
49458;SDS011;35354;51.296;16.924;2023-01-10T13:05:19;23.92;;;13.27;;
49458;SDS011;35354;51.296;16.924;2023-01-10T13:07:46;29.23;;;14.40;;
49458;SDS011;35354;51.296;16.924;2023-01-10T13:10:17;22.27;;;12.73;;
49458;SDS011;35354;51.296;16.924;2023-01-10T13:16:10;23.55;;;13.30;;
49458;SDS011;35354;51.296;16.924;2023-01-10T13:21:29;23.05;;;12.38;;
49458;SDS011;35354;51.296;16.924;2023-01-10T13:24:03;17.30;;;12.05;;
49458;SDS011;35354;51.296;16.924;2023-01-10T13:26:50;18.85;;;11.57;;
49458;SDS011;35354;51.296;16.924;2023-01-10T13:29:21;23.10;;;12.10;;
49458;SDS011;35354;51.296;16.924;2023-01-10T13:31:49;20.30;;;13.23;;
49458;SDS011;35354;51.296;16.924;2023-01-10T13:34:21;18.55;;;11.73;;
49458;SDS011;35354;51.296;16.924;2023-01-10T13:36:52;21.40;;;11.45;;
49458;SDS011;35354;51.296;16.924;2023-01-10T13:39:37;18.63;;;10.77;;
49458;SDS011;35354;51.296;16.924;2023-01-10T13:57:58;26.38;;;15.95;;
49458;SDS011;35354;51.296;16.924;2023-01-10T14:08:55;21.23;;;12.65;;
49458;SDS011;35354;51.296;16.924;2023-01-10T14:11:29;18.67;;;12.98;;
49458;SDS011;35354;51.296;16.924;2023-01-10T14:14:17;24.80;;;13.82;;
49458;SDS011;35354;51.296;16.924;2023-01-10T14:16:57;23.55;;;13.70;;
49458;SDS011;35354;51.296;16.924;2023-01-10T14:19:34;23.35;;;14.20;;
49458;SDS011;35354;51.296;16.924;2023-01-10T14:22:00;25.98;;;14.57;;
49458;SDS011;35354;51.296;16.924;2023-01-10T14:24:28;28.92;;;14.23;;
49458;SDS011;35354;51.296;16.924;2023-01-10T14:26:59;22.35;;;14.48;;
49458;SDS011;35354;51.296;16.924;2023-01-10T14:29:26;19.30;;;13.38;;
49458;SDS011;35354;51.296;16.924;2023-01-10T14:31:55;15.23;;;11.95;;
49458;SDS011;35354;51.296;16.924;2023-01-10T14:34:27;12.07;;;9.93;;
49458;SDS011;35354;51.296;16.924;2023-01-10T14:36:56;19.77;;;10.82;;
49458;SDS011;35354;51.296;16.924;2023-01-10T14:39:24;18.60;;;10.50;;
49458;SDS011;35354;51.296;16.924;2023-01-10T14:41:51;20.65;;;12.30;;
49458;SDS011;35354;51.296;16.924;2023-01-10T14:46:56;18.10;;;11.57;;
49458;SDS011;35354;51.296;16.924;2023-01-10T14:52:17;21.10;;;13.35;;
49458;SDS011;35354;51.296;16.924;2023-01-10T14:55:01;22.85;;;13.77;;
49458;SDS011;35354;51.296;16.924;2023-01-10T14:57:34;25.88;;;14.88;;
49458;SDS011;35354;51.296;16.924;2023-01-10T15:00:13;26.02;;;14.15;;
49458;SDS011;35354;51.296;16.924;2023-01-10T15:02:43;24.40;;;15.57;;
49458;SDS011;35354;51.296;16.924;2023-01-10T15:05:23;30.88;;;16.23;;
49458;SDS011;35354;51.296;16.924;2023-01-10T15:07:51;21.70;;;14.15;;
49458;SDS011;35354;51.296;16.924;2023-01-10T15:10:28;28.92;;;16.80;;
49458;SDS011;35354;51.296;16.924;2023-01-10T15:13:05;22.60;;;15.07;;
49458;SDS011;35354;51.296;16.924;2023-01-10T15:15:32;24.40;;;14.18;;
49458;SDS011;35354;51.296;16.924;2023-01-10T15:17:59;20.63;;;14.48;;
49458;SDS011;35354;51.296;16.924;2023-01-10T15:20:30;25.42;;;16.73;;
49458;SDS011;35354;51.296;16.924;2023-01-10T15:22:57;34.63;;;21.80;;
49458;SDS011;35354;51.296;16.924;2023-01-10T15:25:37;41.53;;;27.80;;
49458;SDS011;35354;51.296;16.924;2023-01-10T15:28:04;43.85;;;28.98;;
49458;SDS011;35354;51.296;16.924;2023-01-10T15:30:37;43.33;;;28.08;;
49458;SDS011;35354;51.296;16.924;2023-01-10T15:33:03;35.40;;;21.90;;
49458;SDS011;35354;51.296;16.924;2023-01-10T15:35:33;40.53;;;24.02;;
49458;SDS011;35354;51.296;16.924;2023-01-10T15:38:01;38.78;;;25.60;;
49458;SDS011;35354;51.296;16.924;2023-01-10T15:40:33;53.10;;;33.55;;
49458;SDS011;35354;51.296;16.924;2023-01-10T15:45:41;51.67;;;34.78;;
49458;SDS011;35354;51.296;16.924;2023-01-10T15:51:19;48.65;;;30.92;;
49458;SDS011;35354;51.296;16.924;2023-01-10T15:56:27;38.97;;;26.88;;
49458;SDS011;35354;51.296;16.924;2023-01-10T15:58:53;40.05;;;27.23;;
49458;SDS011;35354;51.296;16.924;2023-01-10T16:01:20;37.58;;;25.02;;
49458;SDS011;35354;51.296;16.924;2023-01-10T16:03:48;34.15;;;24.52;;
49458;SDS011;35354;51.296;16.924;2023-01-10T16:06:34;32.13;;;22.98;;
49458;SDS011;35354;51.296;16.924;2023-01-10T16:09:03;43.45;;;30.27;;
49458;SDS011;35354;51.296;16.924;2023-01-10T16:11:35;52.60;;;34.65;;
49458;SDS011;35354;51.296;16.924;2023-01-10T16:14:22;57.38;;;36.70;;
49458;SDS011;35354;51.296;16.924;2023-01-10T16:16:48;63.88;;;40.75;;
49458;SDS011;35354;51.296;16.924;2023-01-10T16:19:14;66.15;;;37.97;;
49458;SDS011;35354;51.296;16.924;2023-01-10T16:21:41;65.07;;;39.08;;
49458;SDS011;35354;51.296;16.924;2023-01-10T16:26:59;51.88;;;31.58;;
49458;SDS011;35354;51.296;16.924;2023-01-10T16:29:29;48.63;;;30.60;;
49458;SDS011;35354;51.296;16.924;2023-01-10T16:31:55;47.25;;;28.13;;
49458;SDS011;35354;51.296;16.924;2023-01-10T16:34:21;52.63;;;32.40;;
49458;SDS011;35354;51.296;16.924;2023-01-10T16:36:47;54.78;;;33.22;;
49458;SDS011;35354;51.296;16.924;2023-01-10T16:39:14;58.40;;;35.60;;
49458;SDS011;35354;51.296;16.924;2023-01-10T16:41:42;68.50;;;39.28;;
49458;SDS011;35354;51.296;16.924;2023-01-10T16:44:27;128.43;;;66.53;;
49458;SDS011;35354;51.296;16.924;2023-01-10T16:46:53;152.38;;;76.45;;
49458;SDS011;35354;51.296;16.924;2023-01-10T16:49:19;157.68;;;76.68;;